Terminal Aerodrome Forecast
Issued by NWS

Home | Current Version | Previous Version | Text Only | Print | Product List | Glossary On
Versions: 1 2 3 4 5 6 7 8 9 10 11 12 13 14 15 16 17 18 19 20 21 22 23 24 25 26 27 28 29 30 31 32 33 34 35
000
FTUS45 KBOI 222328
TAFMYL
TAF
KMYL 222328Z 2300/2324 16010KT P6SM FEW040 BKN060
     FM230300 VRB05KT P6SM BKN050 OVC100
     FM230900 16005KT P6SM VCSH OVC050
     FM231500 16008KT P6SM -SHRA BKN020 OVC040=

USA.gov is the U.S. government's official web portal to all federal, state and local government web resources and services.